sensor_id;sensor_type;location;lat;lon;timestamp;temperature;humidity
22202;DHT22;11266;51.522;6.302;2023-04-23T00:00:00;9.90;99.90
22202;DHT22;11266;51.522;6.302;2023-04-23T00:00:48;9.90;99.90
22202;DHT22;11266;51.522;6.302;2023-04-23T00:01:37;9.90;99.90
22202;DHT22;11266;51.522;6.302;2023-04-23T00:02:25;9.90;99.90
22202;DHT22;11266;51.522;6.302;2023-04-23T00:03:11;9.90;99.90
22202;DHT22;11266;51.522;6.302;2023-04-23T00:03:59;9.90;99.90
22202;DHT22;11266;51.522;6.302;2023-04-23T00:04:51;9.90;99.90
22202;DHT22;11266;51.522;6.302;2023-04-23T00:05:38;9.90;99.90
22202;DHT22;11266;51.522;6.302;2023-04-23T00:06:24;9.90;99.90
22202;DHT22;11266;51.522;6.302;2023-04-23T00:07:11;9.90;99.90
22202;DHT22;11266;51.522;6.302;2023-04-23T00:07:59;9.90;99.90
22202;DHT22;11266;51.522;6.302;2023-04-23T00:08:46;9.90;99.90
22202;DHT22;11266;51.522;6.302;2023-04-23T00:09:34;9.90;99.90
22202;DHT22;11266;51.522;6.302;2023-04-23T00:10:20;9.90;99.90
22202;DHT22;11266;51.522;6.302;2023-04-23T00:11:08;9.90;99.90
22202;DHT22;11266;51.522;6.302;2023-04-23T00:11:54;9.90;99.90
22202;DHT22;11266;51.522;6.302;2023-04-23T00:12:41;9.90;99.90
22202;DHT22;11266;51.522;6.302;2023-04-23T00:13:28;9.80;99.90
22202;DHT22;11266;51.522;6.302;2023-04-23T00:14:14;9.80;99.90
22202;DHT22;11266;51.522;6.302;2023-04-23T00:15:02;9.90;99.90
22202;DHT22;11266;51.522;6.302;2023-04-23T00:15:48;9.90;99.90
22202;DHT22;11266;51.522;6.302;2023-04-23T00:16:34;9.80;99.90
22202;DHT22;11266;51.522;6.302;2023-04-23T00:17:20;9.80;99.90
22202;DHT22;11266;51.522;6.302;2023-04-23T00:18:06;9.80;99.90
22202;DHT22;11266;51.522;6.302;2023-04-23T00:18:52;9.80;99.90
22202;DHT22;11266;51.522;6.302;2023-04-23T00:19:38;9.80;99.90
22202;DHT22;11266;51.522;6.302;2023-04-23T00:20:23;9.80;99.90
22202;DHT22;11266;51.522;6.302;2023-04-23T00:21:09;9.80;99.90
22202;DHT22;11266;51.522;6.302;2023-04-23T00:21:55;9.80;99.90
22202;DHT22;11266;51.522;6.302;2023-04-23T00:22:42;9.80;99.90
22202;DHT22;11266;51.522;6.302;2023-04-23T00:23:27;9.80;99.90
22202;DHT22;11266;51.522;6.302;2023-04-23T00:24:13;9.80;99.90
22202;DHT22;11266;51.522;6.302;2023-04-23T00:24:59;9.80;99.90
22202;DHT22;11266;51.522;6.302;2023-04-23T00:25:45;9.80;99.90
22202;DHT22;11266;51.522;6.302;2023-04-23T00:26:31;9.80;99.90
22202;DHT22;11266;51.522;6.302;2023-04-23T00:27:16;9.80;99.90
22202;DHT22;11266;51.522;6.302;2023-04-23T00:28:02;9.80;99.90
22202;DHT22;11266;51.522;6.302;2023-04-23T00:28:48;9.70;99.90
22202;DHT22;11266;51.522;6.302;2023-04-23T00:29:34;9.70;99.90
22202;DHT22;11266;51.522;6.302;2023-04-23T00:30:20;9.70;99.90
22202;DHT22;11266;51.522;6.302;2023-04-23T00:31:06;9.70;99.90
22202;DHT22;11266;51.522;6.302;2023-04-23T00:31:52;9.70;99.90
22202;DHT22;11266;51.522;6.302;2023-04-23T00:32:37;9.80;99.90
22202;DHT22;11266;51.522;6.302;2023-04-23T00:33:23;9.70;99.90
22202;DHT22;11266;51.522;6.302;2023-04-23T00:34:09;9.70;99.90
22202;DHT22;11266;51.522;6.302;2023-04-23T00:34:55;9.70;99.90
22202;DHT22;11266;51.522;6.302;2023-04-23T00:35:41;9.70;99.90
22202;DHT22;11266;51.522;6.302;2023-04-23T00:36:27;9.70;99.90
22202;DHT22;11266;51.522;6.302;2023-04-23T00:37:13;9.70;99.90
22202;DHT22;11266;51.522;6.302;2023-04-23T00:37:58;9.70;99.90
22202;DHT22;11266;51.522;6.302;2023-04-23T00:38:44;9.70;99.90
22202;DHT22;11266;51.522;6.302;2023-04-23T00:39:30;9.70;99.90
22202;DHT22;11266;51.522;6.302;2023-04-23T00:40:16;9.70;99.90
22202;DHT22;11266;51.522;6.302;2023-04-23T00:41:01;9.60;99.90
22202;DHT22;11266;51.522;6.302;2023-04-23T00:41:48;9.60;99.90
22202;DHT22;11266;51.522;6.302;2023-04-23T00:42:35;9.60;99.90
22202;DHT22;11266;51.522;6.302;2023-04-23T00:43:20;9.60;99.90
22202;DHT22;11266;51.522;6.302;2023-04-23T00:44:07;9.60;99.90
22202;DHT22;11266;51.522;6.302;2023-04-23T00:44:56;9.60;99.90
22202;DHT22;11266;51.522;6.302;2023-04-23T00:45:43;9.60;99.90
22202;DHT22;11266;51.522;6.302;2023-04-23T00:46:29;9.60;99.90
22202;DHT22;11266;51.522;6.302;2023-04-23T00:47:15;9.60;99.90
22202;DHT22;11266;51.522;6.302;2023-04-23T00:48:01;9.50;99.90
22202;DHT22;11266;51.522;6.302;2023-04-23T00:48:48;9.50;99.90
22202;DHT22;11266;51.522;6.302;2023-04-23T00:49:36;9.50;99.90
22202;DHT22;11266;51.522;6.302;2023-04-23T00:50:22;9.50;99.90
22202;DHT22;11266;51.522;6.302;2023-04-23T00:51:10;9.50;99.90
22202;DHT22;11266;51.522;6.302;2023-04-23T00:51:56;9.50;99.90
22202;DHT22;11266;51.522;6.302;2023-04-23T00:52:41;9.50;99.90
22202;DHT22;11266;51.522;6.302;2023-04-23T00:53:27;9.50;99.90
22202;DHT22;11266;51.522;6.302;2023-04-23T00:54:13;9.50;99.90
22202;DHT22;11266;51.522;6.302;2023-04-23T00:54:59;9.50;99.90
22202;DHT22;11266;51.522;6.302;2023-04-23T00:55:45;9.50;99.90
22202;DHT22;11266;51.522;6.302;2023-04-23T00:56:31;9.50;99.90
22202;DHT22;11266;51.522;6.302;2023-04-23T00:57:17;9.50;99.90
22202;DHT22;11266;51.522;6.302;2023-04-23T00:58:03;9.50;99.90
22202;DHT22;11266;51.522;6.302;2023-04-23T00:58:51;9.50;99.90
22202;DHT22;11266;51.522;6.302;2023-04-23T00:59:37;9.50;99.90
22202;DHT22;11266;51.522;6.302;2023-04-23T01:00:23;9.40;99.90
22202;DHT22;11266;51.522;6.302;2023-04-23T01:01:09;9.40;99.90
22202;DHT22;11266;51.522;6.302;2023-04-23T01:01:55;9.40;99.90
22202;DHT22;11266;51.522;6.302;2023-04-23T01:02:42;9.40;99.90
22202;DHT22;11266;51.522;6.302;2023-04-23T01:03:29;9.40;99.90
22202;DHT22;11266;51.522;6.302;2023-04-23T01:04:16;9.40;99.90
22202;DHT22;11266;51.522;6.302;2023-04-23T01:05:04;9.40;99.90
22202;DHT22;11266;51.522;6.302;2023-04-23T01:05:52;9.40;99.90
22202;DHT22;11266;51.522;6.302;2023-04-23T01:06:38;9.40;99.90
22202;DHT22;11266;51.522;6.302;2023-04-23T01:07:25;9.40;99.90
22202;DHT22;11266;51.522;6.302;2023-04-23T01:08:14;9.40;99.90
22202;DHT22;11266;51.522;6.302;2023-04-23T01:09:00;9.40;99.90
22202;DHT22;11266;51.522;6.302;2023-04-23T01:09:47;9.30;99.90
22202;DHT22;11266;51.522;6.302;2023-04-23T01:10:34;9.30;99.90
22202;DHT22;11266;51.522;6.302;2023-04-23T01:11:19;9.30;99.90
22202;DHT22;11266;51.522;6.302;2023-04-23T01:12:05;9.30;99.90
22202;DHT22;11266;51.522;6.302;2023-04-23T01:12:52;9.30;99.90
22202;DHT22;11266;51.522;6.302;2023-04-23T01:13:37;9.30;99.90
22202;DHT22;11266;51.522;6.302;2023-04-23T01:14:23;9.30;99.90
22202;DHT22;11266;51.522;6.302;2023-04-23T01:15:09;9.30;99.90
22202;DHT22;11266;51.522;6.302;2023-04-23T01:15:55;9.20;99.90
22202;DHT22;11266;51.522;6.302;2023-04-23T01:16:41;9.20;99.90
22202;DHT22;11266;51.522;6.302;2023-04-23T01:17:27;9.20;99.90
22202;DHT22;11266;51.522;6.302;2023-04-23T01:18:13;9.20;99.90
22202;DHT22;11266;51.522;6.302;2023-04-23T01:18:59;9.20;99.90
22202;DHT22;11266;51.522;6.302;2023-04-23T01:19:46;9.20;99.90
22202;DHT22;11266;51.522;6.302;2023-04-23T01:20:33;9.20;99.90
22202;DHT22;11266;51.522;6.302;2023-04-23T01:21:20;9.20;99.90
22202;DHT22;11266;51.522;6.302;2023-04-23T01:22:10;9.10;99.90
22202;DHT22;11266;51.522;6.302;2023-04-23T01:22:56;9.20;99.90
22202;DHT22;11266;51.522;6.302;2023-04-23T01:23:42;9.20;99.90
22202;DHT22;11266;51.522;6.302;2023-04-23T01:24:30;9.20;99.90
22202;DHT22;11266;51.522;6.302;2023-04-23T01:25:16;9.10;99.90
22202;DHT22;11266;51.522;6.302;2023-04-23T01:26:02;9.20;99.90
22202;DHT22;11266;51.522;6.302;2023-04-23T01:26:47;9.10;99.90
22202;DHT22;11266;51.522;6.302;2023-04-23T01:27:33;9.10;99.90
22202;DHT22;11266;51.522;6.302;2023-04-23T01:28:20;9.10;99.90
22202;DHT22;11266;51.522;6.302;2023-04-23T01:29:06;9.10;99.90
22202;DHT22;11266;51.522;6.302;2023-04-23T01:29:52;9.10;99.90
22202;DHT22;11266;51.522;6.302;2023-04-23T01:30:42;9.10;99.90
22202;DHT22;11266;51.522;6.302;2023-04-23T01:31:28;9.10;99.90
22202;DHT22;11266;51.522;6.302;2023-04-23T01:32:15;9.10;99.90
22202;DHT22;11266;51.522;6.302;2023-04-23T01:33:02;9.00;99.90
22202;DHT22;11266;51.522;6.302;2023-04-23T01:33:50;9.10;99.90
22202;DHT22;11266;51.522;6.302;2023-04-23T01:34:40;9.00;99.90
22202;DHT22;11266;51.522;6.302;2023-04-23T01:35:27;9.00;99.90
22202;DHT22;11266;51.522;6.302;2023-04-23T01:36:13;9.00;99.90
22202;DHT22;11266;51.522;6.302;2023-04-23T01:36:59;9.00;99.90
22202;DHT22;11266;51.522;6.302;2023-04-23T01:37:45;9.00;99.90
22202;DHT22;11266;51.522;6.302;2023-04-23T01:38:32;9.00;99.90
22202;DHT22;11266;51.522;6.302;2023-04-23T01:39:18;9.00;99.90
22202;DHT22;11266;51.522;6.302;2023-04-23T01:40:05;9.00;99.90
22202;DHT22;11266;51.522;6.302;2023-04-23T01:40:52;9.00;99.90
22202;DHT22;11266;51.522;6.302;2023-04-23T01:41:39;9.00;99.90
22202;DHT22;11266;51.522;6.302;2023-04-23T01:42:25;9.00;99.90
22202;DHT22;11266;51.522;6.302;2023-04-23T01:43:11;8.90;99.90
22202;DHT22;11266;51.522;6.302;2023-04-23T01:43:57;8.90;99.90
22202;DHT22;11266;51.522;6.302;2023-04-23T01:44:44;8.90;99.90
22202;DHT22;11266;51.522;6.302;2023-04-23T01:45:30;8.90;99.90
22202;DHT22;11266;51.522;6.302;2023-04-23T01:46:16;8.90;99.90
22202;DHT22;11266;51.522;6.302;2023-04-23T01:47:02;8.90;99.90
22202;DHT22;11266;51.522;6.302;2023-04-23T01:47:48;8.90;99.90
22202;DHT22;11266;51.522;6.302;2023-04-23T01:48:35;8.90;99.90
22202;DHT22;11266;51.522;6.302;2023-04-23T01:49:21;8.80;99.90
22202;DHT22;11266;51.522;6.302;2023-04-23T01:50:08;8.90;99.90
22202;DHT22;11266;51.522;6.302;2023-04-23T01:50:54;8.80;99.90
22202;DHT22;11266;51.522;6.302;2023-04-23T01:51:42;8.80;99.90
22202;DHT22;11266;51.522;6.302;2023-04-23T01:52:27;8.80;99.90
22202;DHT22;11266;51.522;6.302;2023-04-23T01:53:13;8.90;99.90
22202;DHT22;11266;51.522;6.302;2023-04-23T01:53:59;8.80;99.90
22202;DHT22;11266;51.522;6.302;2023-04-23T01:54:45;8.80;99.90
22202;DHT22;11266;51.522;6.302;2023-04-23T01:55:31;8.80;99.90
22202;DHT22;11266;51.522;6.302;2023-04-23T01:56:19;8.80;99.90
22202;DHT22;11266;51.522;6.302;2023-04-23T01:57:08;8.80;99.90
22202;DHT22;11266;51.522;6.302;2023-04-23T01:57:54;8.80;99.90
22202;DHT22;11266;51.522;6.302;2023-04-23T01:58:40;8.80;99.90
22202;DHT22;11266;51.522;6.302;2023-04-23T01:59:26;8.80;99.90
22202;DHT22;11266;51.522;6.302;2023-04-23T02:00:13;8.80;99.90
22202;DHT22;11266;51.522;6.302;2023-04-23T02:00:59;8.80;99.90
22202;DHT22;11266;51.522;6.302;2023-04-23T02:01:46;8.80;99.90
22202;DHT22;11266;51.522;6.302;2023-04-23T02:02:31;8.80;99.90
22202;DHT22;11266;51.522;6.302;2023-04-23T02:03:17;8.70;99.90
22202;DHT22;11266;51.522;6.302;2023-04-23T02:04:03;8.70;99.90
22202;DHT22;11266;51.522;6.302;2023-04-23T02:04:49;8.70;99.90
22202;DHT22;11266;51.522;6.302;2023-04-23T02:05:37;8.70;99.90
22202;DHT22;11266;51.522;6.302;2023-04-23T02:06:25;8.70;99.90
22202;DHT22;11266;51.522;6.302;2023-04-23T02:07:12;8.70;99.90
22202;DHT22;11266;51.522;6.302;2023-04-23T02:07:57;8.70;99.90
22202;DHT22;11266;51.522;6.302;2023-04-23T02:08:43;8.70;99.90
22202;DHT22;11266;51.522;6.302;2023-04-23T02:09:29;8.70;99.90
22202;DHT22;11266;51.522;6.302;2023-04-23T02:10:15;8.70;99.90
22202;DHT22;11266;51.522;6.302;2023-04-23T02:11:01;8.70;99.90
22202;DHT22;11266;51.522;6.302;2023-04-23T02:11:47;8.70;99.90
22202;DHT22;11266;51.522;6.302;2023-04-23T02:12:33;8.70;99.90
22202;DHT22;11266;51.522;6.302;2023-04-23T02:13:19;8.70;99.90
22202;DHT22;11266;51.522;6.302;2023-04-23T02:14:05;8.70;99.90
22202;DHT22;11266;51.522;6.302;2023-04-23T02:14:52;8.70;99.90
22202;DHT22;11266;51.522;6.302;2023-04-23T02:15:38;8.70;99.90
22202;DHT22;11266;51.522;6.302;2023-04-23T02:16:25;8.70;99.90
22202;DHT22;11266;51.522;6.302;2023-04-23T02:17:12;8.80;99.90
22202;DHT22;11266;51.522;6.302;2023-04-23T02:17:58;8.80;99.90
22202;DHT22;11266;51.522;6.302;2023-04-23T02:18:44;8.80;99.90
22202;DHT22;11266;51.522;6.302;2023-04-23T02:19:30;8.70;99.90
22202;DHT22;11266;51.522;6.302;2023-04-23T02:20:19;8.70;99.90
22202;DHT22;11266;51.522;6.302;2023-04-23T02:21:06;8.70;99.90
22202;DHT22;11266;51.522;6.302;2023-04-23T02:21:52;8.70;99.90
22202;DHT22;11266;51.522;6.302;2023-04-23T02:22:39;8.70;99.90
22202;DHT22;11266;51.522;6.302;2023-04-23T02:23:25;8.70;99.90
22202;DHT22;11266;51.522;6.302;2023-04-23T02:24:11;8.70;99.90
22202;DHT22;11266;51.522;6.302;2023-04-23T02:24:57;8.70;99.90
22202;DHT22;11266;51.522;6.302;2023-04-23T02:25:44;8.60;99.90
22202;DHT22;11266;51.522;6.302;2023-04-23T02:26:30;8.70;99.90
22202;DHT22;11266;51.522;6.302;2023-04-23T02:27:16;8.60;99.90
22202;DHT22;11266;51.522;6.302;2023-04-23T02:28:02;8.70;99.90
22202;DHT22;11266;51.522;6.302;2023-04-23T02:28:51;8.60;99.90
22202;DHT22;11266;51.522;6.302;2023-04-23T02:29:37;8.60;99.90
22202;DHT22;11266;51.522;6.302;2023-04-23T02:30:22;8.60;99.90
22202;DHT22;11266;51.522;6.302;2023-04-23T02:31:10;8.60;99.90
22202;DHT22;11266;51.522;6.302;2023-04-23T02:31:55;8.60;99.90
22202;DHT22;11266;51.522;6.302;2023-04-23T02:32:41;8.60;99.90
22202;DHT22;11266;51.522;6.302;2023-04-23T02:33:28;8.60;99.90
22202;DHT22;11266;51.522;6.302;2023-04-23T02:34:13;8.60;99.90
22202;DHT22;11266;51.522;6.302;2023-04-23T02:34:59;8.60;99.90
22202;DHT22;11266;51.522;6.302;2023-04-23T02:35:46;8.60;99.90
22202;DHT22;11266;51.522;6.302;2023-04-23T02:36:32;8.60;99.90
22202;DHT22;11266;51.522;6.302;2023-04-23T02:37:18;8.60;99.90
22202;DHT22;11266;51.522;6.302;2023-04-23T02:38:04;8.60;99.90
22202;DHT22;11266;51.522;6.302;2023-04-23T02:38:49;8.60;99.90
22202;DHT22;11266;51.522;6.302;2023-04-23T02:39:35;8.60;99.90
22202;DHT22;11266;51.522;6.302;2023-04-23T02:40:23;8.50;99.90
22202;DHT22;11266;51.522;6.302;2023-04-23T02:41:09;8.50;99.90
22202;DHT22;11266;51.522;6.302;2023-04-23T02:41:55;8.50;99.90
22202;DHT22;11266;51.522;6.302;2023-04-23T02:42:41;8.50;99.90
22202;DHT22;11266;51.522;6.302;2023-04-23T02:43:27;8.50;99.90
22202;DHT22;11266;51.522;6.302;2023-04-23T02:44:12;8.50;99.90
22202;DHT22;11266;51.522;6.302;2023-04-23T02:44:58;8.50;99.90
22202;DHT22;11266;51.522;6.302;2023-04-23T02:45:44;8.50;99.90
22202;DHT22;11266;51.522;6.302;2023-04-23T02:46:29;8.50;99.90
22202;DHT22;11266;51.522;6.302;2023-04-23T02:47:16;8.50;99.90
22202;DHT22;11266;51.522;6.302;2023-04-23T02:48:01;8.50;99.90
22202;DHT22;11266;51.522;6.302;2023-04-23T02:48:48;8.50;99.90
22202;DHT22;11266;51.522;6.302;2023-04-23T02:49:34;8.40;99.90
22202;DHT22;11266;51.522;6.302;2023-04-23T02:50:20;8.50;99.90
22202;DHT22;11266;51.522;6.302;2023-04-23T02:51:10;8.50;99.90
22202;DHT22;11266;51.522;6.302;2023-04-23T02:51:56;8.50;99.90
22202;DHT22;11266;51.522;6.302;2023-04-23T02:52:42;8.50;99.90
22202;DHT22;11266;51.522;6.302;2023-04-23T02:53:28;8.40;99.90
22202;DHT22;11266;51.522;6.302;2023-04-23T02:54:14;8.50;99.90
22202;DHT22;11266;51.522;6.302;2023-04-23T02:55:00;8.40;99.90
22202;DHT22;11266;51.522;6.302;2023-04-23T02:55:48;8.40;99.90
22202;DHT22;11266;51.522;6.302;2023-04-23T02:56:34;8.40;99.90
22202;DHT22;11266;51.522;6.302;2023-04-23T02:57:20;8.40;99.90
22202;DHT22;11266;51.522;6.302;2023-04-23T02:58:06;8.40;99.90
22202;DHT22;11266;51.522;6.302;2023-04-23T02:58:52;8.50;99.90
22202;DHT22;11266;51.522;6.302;2023-04-23T02:59:37;8.50;99.90
22202;DHT22;11266;51.522;6.302;2023-04-23T03:00:24;8.50;99.90
22202;DHT22;11266;51.522;6.302;2023-04-23T03:01:10;8.50;99.90
22202;DHT22;11266;51.522;6.302;2023-04-23T03:01:56;8.50;99.90
22202;DHT22;11266;51.522;6.302;2023-04-23T03:02:42;8.50;99.90
22202;DHT22;11266;51.522;6.302;2023-04-23T03:03:28;8.50;99.90
22202;DHT22;11266;51.522;6.302;2023-04-23T03:04:16;8.50;99.90
22202;DHT22;11266;51.522;6.302;2023-04-23T03:05:03;8.50;99.90
22202;DHT22;11266;51.522;6.302;2023-04-23T03:05:49;8.50;99.90
22202;DHT22;11266;51.522;6.302;2023-04-23T03:06:35;8.50;99.90
22202;DHT22;11266;51.522;6.302;2023-04-23T03:07:21;8.50;99.90
22202;DHT22;11266;51.522;6.302;2023-04-23T03:08:07;8.50;99.90
22202;DHT22;11266;51.522;6.302;2023-04-23T03:08:53;8.50;99.90
22202;DHT22;11266;51.522;6.302;2023-04-23T03:09:38;8.50;99.90
22202;DHT22;11266;51.522;6.302;2023-04-23T03:10:26;8.50;99.90
22202;DHT22;11266;51.522;6.302;2023-04-23T03:11:13;8.50;99.90
22202;DHT22;11266;51.522;6.302;2023-04-23T03:11:59;8.50;99.90
22202;DHT22;11266;51.522;6.302;2023-04-23T03:12:45;8.50;99.90
22202;DHT22;11266;51.522;6.302;2023-04-23T03:13:30;8.50;99.90
22202;DHT22;11266;51.522;6.302;2023-04-23T03:14:16;8.40;99.90
22202;DHT22;11266;51.522;6.302;2023-04-23T03:15:02;8.50;99.90
22202;DHT22;11266;51.522;6.302;2023-04-23T03:15:48;8.50;99.90
22202;DHT22;11266;51.522;6.302;2023-04-23T03:16:34;8.50;99.90
22202;DHT22;11266;51.522;6.302;2023-04-23T03:17:20;8.50;99.90
22202;DHT22;11266;51.522;6.302;2023-04-23T03:18:06;8.50;99.90
22202;DHT22;11266;51.522;6.302;2023-04-23T03:18:52;8.40;99.90
22202;DHT22;11266;51.522;6.302;2023-04-23T03:19:38;8.50;99.90
22202;DHT22;11266;51.522;6.302;2023-04-23T03:20:24;8.50;99.90
22202;DHT22;11266;51.522;6.302;2023-04-23T03:21:10;8.50;99.90
22202;DHT22;11266;51.522;6.302;2023-04-23T03:21:56;8.50;99.90
22202;DHT22;11266;51.522;6.302;2023-04-23T03:22:41;8.50;99.90
22202;DHT22;11266;51.522;6.302;2023-04-23T03:23:28;8.50;99.90
22202;DHT22;11266;51.522;6.302;2023-04-23T03:24:15;8.50;99.90
22202;DHT22;11266;51.522;6.302;2023-04-23T03:25:01;8.60;99.90
22202;DHT22;11266;51.522;6.302;2023-04-23T03:25:48;8.50;99.90
22202;DHT22;11266;51.522;6.302;2023-04-23T03:26:34;8.50;99.90
22202;DHT22;11266;51.522;6.302;2023-04-23T03:27:20;8.60;99.90
22202;DHT22;11266;51.522;6.302;2023-04-23T03:28:05;8.60;99.90
22202;DHT22;11266;51.522;6.302;2023-04-23T03:28:51;8.60;99.90
22202;DHT22;11266;51.522;6.302;2023-04-23T03:29:37;8.60;99.90
22202;DHT22;11266;51.522;6.302;2023-04-23T03:30:23;8.60;99.90
22202;DHT22;11266;51.522;6.302;2023-04-23T03:31:09;8.60;99.90
22202;DHT22;11266;51.522;6.302;2023-04-23T03:31:55;8.60;99.90
22202;DHT22;11266;51.522;6.302;2023-04-23T03:32:41;8.60;99.90
22202;DHT22;11266;51.522;6.302;2023-04-23T03:33:26;8.60;99.90
22202;DHT22;11266;51.522;6.302;2023-04-23T03:34:12;8.60;99.90
22202;DHT22;11266;51.522;6.302;2023-04-23T03:34:59;8.60;99.90
22202;DHT22;11266;51.522;6.302;2023-04-23T03:35:45;8.60;99.90
22202;DHT22;11266;51.522;6.302;2023-04-23T03:36:31;8.50;99.90
22202;DHT22;11266;51.522;6.302;2023-04-23T03:37:16;8.60;99.90
22202;DHT22;11266;51.522;6.302;2023-04-23T03:38:02;8.60;99.90
22202;DHT22;11266;51.522;6.302;2023-04-23T03:38:48;8.60;99.90
22202;DHT22;11266;51.522;6.302;2023-04-23T03:39:34;8.60;99.90
22202;DHT22;11266;51.522;6.302;2023-04-23T03:40:20;8.60;99.90
22202;DHT22;11266;51.522;6.302;2023-04-23T03:41:06;8.50;99.90
22202;DHT22;11266;51.522;6.302;2023-04-23T03:41:51;8.50;99.90
22202;DHT22;11266;51.522;6.302;2023-04-23T03:42:37;8.50;99.90
22202;DHT22;11266;51.522;6.302;2023-04-23T03:43:23;8.60;99.90
22202;DHT22;11266;51.522;6.302;2023-04-23T03:44:09;8.60;99.90
22202;DHT22;11266;51.522;6.302;2023-04-23T03:44:54;8.60;99.90
22202;DHT22;11266;51.522;6.302;2023-04-23T03:45:40;8.60;99.90
22202;DHT22;11266;51.522;6.302;2023-04-23T03:46:26;8.60;99.90
22202;DHT22;11266;51.522;6.302;2023-04-23T03:47:12;8.50;99.90
22202;DHT22;11266;51.522;6.302;2023-04-23T03:47:57;8.50;99.90
22202;DHT22;11266;51.522;6.302;2023-04-23T03:48:43;8.50;99.90
22202;DHT22;11266;51.522;6.302;2023-04-23T03:49:29;8.50;99.90
22202;DHT22;11266;51.522;6.302;2023-04-23T03:50:15;8.50;99.90
22202;DHT22;11266;51.522;6.302;2023-04-23T03:51:01;8.50;99.90
22202;DHT22;11266;51.522;6.302;2023-04-23T03:51:47;8.50;99.90
22202;DHT22;11266;51.522;6.302;2023-04-23T03:52:33;8.50;99.90
22202;DHT22;11266;51.522;6.302;2023-04-23T03:53:19;8.50;99.90
22202;DHT22;11266;51.522;6.302;2023-04-23T03:54:06;8.50;99.90
22202;DHT22;11266;51.522;6.302;2023-04-23T03:54:51;8.50;99.90
22202;DHT22;11266;51.522;6.302;2023-04-23T03:55:37;8.50;99.90
22202;DHT22;11266;51.522;6.302;2023-04-23T03:56:23;8.50;99.90
22202;DHT22;11266;51.522;6.302;2023-04-23T03:57:09;8.60;99.90
22202;DHT22;11266;51.522;6.302;2023-04-23T03:57:57;8.60;99.90
22202;DHT22;11266;51.522;6.302;2023-04-23T03:58:46;8.60;99.90
22202;DHT22;11266;51.522;6.302;2023-04-23T03:59:31;8.60;99.90
22202;DHT22;11266;51.522;6.302;2023-04-23T04:00:17;8.60;99.90
22202;DHT22;11266;51.522;6.302;2023-04-23T04:01:03;8.50;99.90
22202;DHT22;11266;51.522;6.302;2023-04-23T04:01:49;8.50;99.90
22202;DHT22;11266;51.522;6.302;2023-04-23T04:02:35;8.60;99.90
22202;DHT22;11266;51.522;6.302;2023-04-23T04:03:20;8.50;99.90
22202;DHT22;11266;51.522;6.302;2023-04-23T04:04:06;8.50;99.90
22202;DHT22;11266;51.522;6.302;2023-04-23T04:04:52;8.50;99.90
22202;DHT22;11266;51.522;6.302;2023-04-23T04:05:39;8.50;99.90
22202;DHT22;11266;51.522;6.302;2023-04-23T04:06:25;8.50;99.90
22202;DHT22;11266;51.522;6.302;2023-04-23T04:07:11;8.50;99.90
22202;DHT22;11266;51.522;6.302;2023-04-23T04:07:57;8.50;99.90
22202;DHT22;11266;51.522;6.302;2023-04-23T04:08:43;8.50;99.90
22202;DHT22;11266;51.522;6.302;2023-04-23T04:09:28;8.50;99.90
22202;DHT22;11266;51.522;6.302;2023-04-23T04:10:14;8.50;99.90
22202;DHT22;11266;51.522;6.302;2023-04-23T04:11:00;8.40;99.90
22202;DHT22;11266;51.522;6.302;2023-04-23T04:11:46;8.40;99.90
22202;DHT22;11266;51.522;6.302;2023-04-23T04:12:32;8.40;99.90
22202;DHT22;11266;51.522;6.302;2023-04-23T04:13:18;8.40;99.90
22202;DHT22;11266;51.522;6.302;2023-04-23T04:14:04;8.40;99.90
22202;DHT22;11266;51.522;6.302;2023-04-23T04:14:50;8.30;99.90
22202;DHT22;11266;51.522;6.302;2023-04-23T04:15:35;8.30;99.90
22202;DHT22;11266;51.522;6.302;2023-04-23T04:16:21;8.30;99.90
22202;DHT22;11266;51.522;6.302;2023-04-23T04:17:07;8.40;99.90
22202;DHT22;11266;51.522;6.302;2023-04-23T04:17:53;8.40;99.90
22202;DHT22;11266;51.522;6.302;2023-04-23T04:18:39;8.40;99.90
22202;DHT22;11266;51.522;6.302;2023-04-23T04:19:25;8.40;99.90
22202;DHT22;11266;51.522;6.302;2023-04-23T04:20:11;8.40;99.90
22202;DHT22;11266;51.522;6.302;2023-04-23T04:20:57;8.40;99.90
22202;DHT22;11266;51.522;6.302;2023-04-23T04:21:43;8.50;99.90
22202;DHT22;11266;51.522;6.302;2023-04-23T04:22:29;8.50;99.90
22202;DHT22;11266;51.522;6.302;2023-04-23T04:23:15;8.40;99.90
22202;DHT22;11266;51.522;6.302;2023-04-23T04:24:01;8.40;99.90
22202;DHT22;11266;51.522;6.302;2023-04-23T04:24:47;8.40;99.90
22202;DHT22;11266;51.522;6.302;2023-04-23T04:25:32;8.40;99.90
22202;DHT22;11266;51.522;6.302;2023-04-23T04:26:19;8.40;99.90
22202;DHT22;11266;51.522;6.302;2023-04-23T04:27:05;8.40;99.90
22202;DHT22;11266;51.522;6.302;2023-04-23T04:27:51;8.40;99.90
22202;DHT22;11266;51.522;6.302;2023-04-23T04:28:37;8.30;99.90
22202;DHT22;11266;51.522;6.302;2023-04-23T04:29:22;8.30;99.90
22202;DHT22;11266;51.522;6.302;2023-04-23T04:30:08;8.30;99.90
22202;DHT22;11266;51.522;6.302;2023-04-23T04:30:55;8.40;99.90
22202;DHT22;11266;51.522;6.302;2023-04-23T04:31:42;8.40;99.90
22202;DHT22;11266;51.522;6.302;2023-04-23T04:32:27;8.40;99.90
22202;DHT22;11266;51.522;6.302;2023-04-23T04:33:13;8.40;99.90
22202;DHT22;11266;51.522;6.302;2023-04-23T04:33:59;8.40;99.90
22202;DHT22;11266;51.522;6.302;2023-04-23T04:34:45;8.40;99.90
22202;DHT22;11266;51.522;6.302;2023-04-23T04:35:31;8.40;99.90
22202;DHT22;11266;51.522;6.302;2023-04-23T04:36:17;8.40;99.90
22202;DHT22;11266;51.522;6.302;2023-04-23T04:37:03;8.40;99.90
22202;DHT22;11266;51.522;6.302;2023-04-23T04:37:49;8.40;99.90
22202;DHT22;11266;51.522;6.302;2023-04-23T04:38:35;8.40;99.90
22202;DHT22;11266;51.522;6.302;2023-04-23T04:39:22;8.40;99.90
22202;DHT22;11266;51.522;6.302;2023-04-23T04:40:08;8.40;99.90
22202;DHT22;11266;51.522;6.302;2023-04-23T04:40:55;8.40;99.90
22202;DHT22;11266;51.522;6.302;2023-04-23T04:41:44;8.40;99.90
22202;DHT22;11266;51.522;6.302;2023-04-23T04:42:31;8.40;99.90
22202;DHT22;11266;51.522;6.302;2023-04-23T04:43:16;8.40;99.90
22202;DHT22;11266;51.522;6.302;2023-04-23T04:44:03;8.40;99.90
22202;DHT22;11266;51.522;6.302;2023-04-23T04:44:48;8.50;99.90
22202;DHT22;11266;51.522;6.302;2023-04-23T04:45:34;8.40;99.90
22202;DHT22;11266;51.522;6.302;2023-04-23T04:46:20;8.40;99.90
22202;DHT22;11266;51.522;6.302;2023-04-23T04:47:06;8.40;99.90
22202;DHT22;11266;51.522;6.302;2023-04-23T04:47:52;8.50;99.90
22202;DHT22;11266;51.522;6.302;2023-04-23T04:48:38;8.50;99.90
22202;DHT22;11266;51.522;6.302;2023-04-23T04:49:24;8.50;99.90
22202;DHT22;11266;51.522;6.302;2023-04-23T04:50:15;8.60;99.90
22202;DHT22;11266;51.522;6.302;2023-04-23T04:51:01;8.60;99.90
22202;DHT22;11266;51.522;6.302;2023-04-23T04:51:47;8.60;99.90
22202;DHT22;11266;51.522;6.302;2023-04-23T04:52:33;8.60;99.90
22202;DHT22;11266;51.522;6.302;2023-04-23T04:53:18;8.60;99.90
22202;DHT22;11266;51.522;6.302;2023-04-23T04:54:07;8.70;99.90
22202;DHT22;11266;51.522;6.302;2023-04-23T04:54:55;8.70;99.90
22202;DHT22;11266;51.522;6.302;2023-04-23T04:55:41;8.70;99.90
22202;DHT22;11266;51.522;6.302;2023-04-23T04:56:27;8.70;99.90